Jungfraujoch, Switzerland
Current Conditions -  °F | °C
As of 1:50 PM on Sunday 23 Nov 2014 (Local Time) from LSMM Reporting Station
Clear Clear  
Wind Chill: 43°   Ceiling: Unl
Heat Index: 43°   Visibility: 6mi
Dew Point: 39°   Wind: 2mph
Humidity: 87%   Direction: 140°SE
Pressure: 30.18"   Gusts: NA
Location:  46.55°N, 7.98°E
Report Text: LSMM 231250Z AUTO 14002KT 9999NDV NCD 06/04 Q1022 RMK BLU
Loading
Personal Weather Stations






























Interactive Weather Map New forecast layout! Learn more

10-Day Weather Forecast

Advertisements
Track Severe Weather on mobile